Aérodrome :
LOGIN :

S'inscrire | Disclaimer

   EN    FR    IT 

 










Légende :    VFR   VFR Marginal   IFR   IFR Intensif   IFR Très Intensif
Visi : 
Plafond : 
>= 8 km
>= 3000ft
5 à 8 km
1000 à 3000 ft
1500m à 5 km
500 à 1000 ft
800 à 1500m
200 à 500 ft
< 800m
< 200 ft
Symboles :   Orages  Brouillard  Fortes neiges  Fortes précipitations  Vent > 20 kt
SIGMETs :   Divers  Orages  Givrage  Turbulence  Onde Orograph.  Cendres Volcan.






- Altitude de l'aérodrome : 194 ft
- Code IATA : LME


LFRM - Le Mans

DERNIER METAR :
  • 272100Z AUTO 15002KT CAVOK 04/01 Q1018

METARs EXPIRÉS :
  • 272030Z AUTO 26005KT CAVOK 06/01 Q1017
  • 272000Z AUTO 26004KT CAVOK 06/01 Q1017
  • 271930Z AUTO 25004KT 210V280 CAVOK 06/01 Q1016 NOSIG
  • 271900Z AUTO 30005KT 270V330 CAVOK 07/01 Q1016 NOSIG
  • 271830Z AUTO 28005KT 250V330 CAVOK 07/01 Q1015 NOSIG

TAF TAF LFRM
Valide du 27 à 12h jusqu'au 28 à 12h UTC


271100Z 2712/2812 30020G30KT 9999 BKN020
BECMG 2714/2716 31012KT
BECMG 2719/2721 24004KT
BECMG 2804/2806 16012KT
TEMPO 2806/2809 4500 -RA
TEMPO 2809/2812 2000 RA BKN003



MET'MAP, la Météo Aéronautique d'un coup d'oeil ! - Copyright ORBIFLY Décembre 2007 - Disclaimer

ORBIFLY MET'MAP TEAM :

Programmation & Développement : Alexandra Zaïnal
Sur une idée originale de : Baudouin d'Aumeries
Assistance à la programmation : Marc-Olivier Méhu
Soutien technique & logistique : Manuel Goepfert

Contact : metmap@orbifly.com




SOURCES & CREDITS :

   NOAA